sensor_id;sensor_type;location;lat;lon;timestamp;P1;durP1;ratioP1;P2;durP2;ratioP2
12654;SDS011;6392;44.644;11.448;2024-02-26T00:01:04;4.70;;;3.57;;
12654;SDS011;6392;44.644;11.448;2024-02-26T00:03:32;6.23;;;3.77;;
12654;SDS011;6392;44.644;11.448;2024-02-26T00:06:01;6.47;;;4.00;;
12654;SDS011;6392;44.644;11.448;2024-02-26T00:08:28;7.17;;;3.73;;
12654;SDS011;6392;44.644;11.448;2024-02-26T00:10:55;5.23;;;3.30;;
12654;SDS011;6392;44.644;11.448;2024-02-26T00:13:22;4.87;;;3.60;;
12654;SDS011;6392;44.644;11.448;2024-02-26T00:15:49;5.57;;;3.60;;
12654;SDS011;6392;44.644;11.448;2024-02-26T00:18:16;3.83;;;3.37;;
12654;SDS011;6392;44.644;11.448;2024-02-26T00:20:44;3.93;;;3.53;;
12654;SDS011;6392;44.644;11.448;2024-02-26T00:23:13;5.27;;;3.40;;
12654;SDS011;6392;44.644;11.448;2024-02-26T00:25:41;3.50;;;3.20;;
12654;SDS011;6392;44.644;11.448;2024-02-26T00:28:08;4.00;;;3.17;;
12654;SDS011;6392;44.644;11.448;2024-02-26T00:30:38;4.77;;;3.60;;
12654;SDS011;6392;44.644;11.448;2024-02-26T00:33:05;4.63;;;3.13;;
12654;SDS011;6392;44.644;11.448;2024-02-26T00:35:32;6.00;;;3.77;;
12654;SDS011;6392;44.644;11.448;2024-02-26T00:38:01;5.27;;;3.60;;
12654;SDS011;6392;44.644;11.448;2024-02-26T00:40:28;4.47;;;3.33;;
12654;SDS011;6392;44.644;11.448;2024-02-26T00:42:55;7.50;;;4.10;;
12654;SDS011;6392;44.644;11.448;2024-02-26T00:45:23;6.97;;;3.57;;
12654;SDS011;6392;44.644;11.448;2024-02-26T00:47:50;5.43;;;3.73;;
12654;SDS011;6392;44.644;11.448;2024-02-26T00:50:17;3.90;;;3.30;;
12654;SDS011;6392;44.644;11.448;2024-02-26T00:52:44;6.70;;;3.87;;
12654;SDS011;6392;44.644;11.448;2024-02-26T00:55:12;5.03;;;3.80;;
12654;SDS011;6392;44.644;11.448;2024-02-26T00:57:39;6.30;;;3.97;;
12654;SDS011;6392;44.644;11.448;2024-02-26T01:00:07;7.13;;;3.50;;
12654;SDS011;6392;44.644;11.448;2024-02-26T01:02:35;7.33;;;3.53;;
12654;SDS011;6392;44.644;11.448;2024-02-26T01:05:02;3.93;;;3.53;;
12654;SDS011;6392;44.644;11.448;2024-02-26T01:07:29;7.83;;;3.57;;
12654;SDS011;6392;44.644;11.448;2024-02-26T01:10:00;5.47;;;3.70;;
12654;SDS011;6392;44.644;11.448;2024-02-26T01:12:29;6.13;;;3.27;;
12654;SDS011;6392;44.644;11.448;2024-02-26T01:14:56;5.33;;;3.60;;
12654;SDS011;6392;44.644;11.448;2024-02-26T01:17:23;4.70;;;3.43;;
12654;SDS011;6392;44.644;11.448;2024-02-26T01:19:50;4.67;;;3.50;;
12654;SDS011;6392;44.644;11.448;2024-02-26T01:22:18;6.27;;;3.80;;
12654;SDS011;6392;44.644;11.448;2024-02-26T01:24:46;6.83;;;3.87;;
12654;SDS011;6392;44.644;11.448;2024-02-26T01:27:13;6.23;;;3.50;;
12654;SDS011;6392;44.644;11.448;2024-02-26T01:29:42;4.27;;;3.40;;
12654;SDS011;6392;44.644;11.448;2024-02-26T01:32:09;6.30;;;4.07;;
12654;SDS011;6392;44.644;11.448;2024-02-26T01:34:36;5.13;;;3.50;;
12654;SDS011;6392;44.644;11.448;2024-02-26T01:37:03;6.07;;;3.37;;
12654;SDS011;6392;44.644;11.448;2024-02-26T01:39:30;5.07;;;3.50;;
12654;SDS011;6392;44.644;11.448;2024-02-26T01:41:57;4.80;;;3.53;;
12654;SDS011;6392;44.644;11.448;2024-02-26T01:44:24;5.93;;;3.70;;
12654;SDS011;6392;44.644;11.448;2024-02-26T01:46:54;5.47;;;2.90;;
12654;SDS011;6392;44.644;11.448;2024-02-26T01:49:21;5.50;;;3.33;;
12654;SDS011;6392;44.644;11.448;2024-02-26T01:51:48;6.27;;;3.30;;
12654;SDS011;6392;44.644;11.448;2024-02-26T01:54:16;5.10;;;3.53;;
12654;SDS011;6392;44.644;11.448;2024-02-26T01:56:43;4.90;;;2.80;;
12654;SDS011;6392;44.644;11.448;2024-02-26T01:59:10;5.63;;;5.00;;
12654;SDS011;6392;44.644;11.448;2024-02-26T02:01:37;5.53;;;3.43;;
12654;SDS011;6392;44.644;11.448;2024-02-26T02:04:12;5.07;;;3.33;;
12654;SDS011;6392;44.644;11.448;2024-02-26T02:06:39;5.70;;;3.33;;
12654;SDS011;6392;44.644;11.448;2024-02-26T02:09:07;3.43;;;2.70;;
12654;SDS011;6392;44.644;11.448;2024-02-26T02:11:35;4.20;;;2.83;;
12654;SDS011;6392;44.644;11.448;2024-02-26T02:14:02;3.17;;;2.87;;
12654;SDS011;6392;44.644;11.448;2024-02-26T02:16:29;3.50;;;3.00;;
12654;SDS011;6392;44.644;11.448;2024-02-26T02:18:56;4.43;;;2.87;;
12654;SDS011;6392;44.644;11.448;2024-02-26T02:21:25;4.20;;;3.03;;
12654;SDS011;6392;44.644;11.448;2024-02-26T02:23:52;6.03;;;2.97;;
12654;SDS011;6392;44.644;11.448;2024-02-26T02:26:19;2.97;;;2.60;;
12654;SDS011;6392;44.644;11.448;2024-02-26T02:28:47;3.40;;;3.10;;
12654;SDS011;6392;44.644;11.448;2024-02-26T02:31:15;4.07;;;2.63;;
12654;SDS011;6392;44.644;11.448;2024-02-26T02:33:42;4.37;;;2.37;;
12654;SDS011;6392;44.644;11.448;2024-02-26T02:36:09;3.27;;;2.63;;
12654;SDS011;6392;44.644;11.448;2024-02-26T02:38:38;4.57;;;2.43;;
12654;SDS011;6392;44.644;11.448;2024-02-26T02:41:14;4.33;;;2.87;;
12654;SDS011;6392;44.644;11.448;2024-02-26T02:43:41;3.77;;;3.00;;
12654;SDS011;6392;44.644;11.448;2024-02-26T02:46:08;3.77;;;2.77;;
12654;SDS011;6392;44.644;11.448;2024-02-26T02:48:36;3.90;;;2.93;;
12654;SDS011;6392;44.644;11.448;2024-02-26T02:51:04;6.60;;;2.63;;
12654;SDS011;6392;44.644;11.448;2024-02-26T02:53:31;4.50;;;3.10;;
12654;SDS011;6392;44.644;11.448;2024-02-26T02:55:59;3.77;;;2.73;;
12654;SDS011;6392;44.644;11.448;2024-02-26T02:58:26;3.90;;;2.70;;
12654;SDS011;6392;44.644;11.448;2024-02-26T03:00:53;4.30;;;3.27;;
12654;SDS011;6392;44.644;11.448;2024-02-26T03:03:21;5.33;;;3.30;;
12654;SDS011;6392;44.644;11.448;2024-02-26T03:05:49;2.70;;;2.50;;
12654;SDS011;6392;44.644;11.448;2024-02-26T03:08:16;4.23;;;3.30;;
12654;SDS011;6392;44.644;11.448;2024-02-26T03:10:45;3.10;;;2.63;;
12654;SDS011;6392;44.644;11.448;2024-02-26T03:13:14;3.10;;;2.60;;
12654;SDS011;6392;44.644;11.448;2024-02-26T03:15:41;4.77;;;2.73;;
12654;SDS011;6392;44.644;11.448;2024-02-26T03:18:08;3.93;;;3.03;;
12654;SDS011;6392;44.644;11.448;2024-02-26T03:20:35;3.07;;;2.77;;
12654;SDS011;6392;44.644;11.448;2024-02-26T03:23:03;3.40;;;2.63;;
12654;SDS011;6392;44.644;11.448;2024-02-26T03:25:30;3.23;;;2.60;;
12654;SDS011;6392;44.644;11.448;2024-02-26T03:27:57;3.43;;;2.50;;
12654;SDS011;6392;44.644;11.448;2024-02-26T03:30:25;3.07;;;2.77;;
12654;SDS011;6392;44.644;11.448;2024-02-26T03:32:52;5.30;;;2.97;;
12654;SDS011;6392;44.644;11.448;2024-02-26T03:35:19;2.93;;;2.50;;
12654;SDS011;6392;44.644;11.448;2024-02-26T03:37:46;3.33;;;2.30;;
12654;SDS011;6392;44.644;11.448;2024-02-26T03:40:15;3.87;;;2.67;;
12654;SDS011;6392;44.644;11.448;2024-02-26T03:42:44;2.53;;;2.30;;
12654;SDS011;6392;44.644;11.448;2024-02-26T03:45:11;4.03;;;2.50;;
12654;SDS011;6392;44.644;11.448;2024-02-26T03:47:40;3.53;;;2.40;;
12654;SDS011;6392;44.644;11.448;2024-02-26T03:50:07;2.90;;;2.53;;
12654;SDS011;6392;44.644;11.448;2024-02-26T03:52:34;4.17;;;2.53;;
12654;SDS011;6392;44.644;11.448;2024-02-26T03:55:01;5.70;;;2.43;;
12654;SDS011;6392;44.644;11.448;2024-02-26T03:57:28;4.23;;;2.90;;
12654;SDS011;6392;44.644;11.448;2024-02-26T03:59:55;3.83;;;3.00;;
12654;SDS011;6392;44.644;11.448;2024-02-26T04:02:22;3.53;;;2.50;;
12654;SDS011;6392;44.644;11.448;2024-02-26T04:04:52;4.87;;;2.83;;
12654;SDS011;6392;44.644;11.448;2024-02-26T04:07:19;2.97;;;2.40;;
12654;SDS011;6392;44.644;11.448;2024-02-26T04:09:46;2.87;;;2.10;;
12654;SDS011;6392;44.644;11.448;2024-02-26T04:12:13;4.50;;;2.67;;
12654;SDS011;6392;44.644;11.448;2024-02-26T04:14:40;4.30;;;2.93;;
12654;SDS011;6392;44.644;11.448;2024-02-26T04:17:07;3.63;;;2.37;;
12654;SDS011;6392;44.644;11.448;2024-02-26T04:19:33;3.47;;;2.20;;
12654;SDS011;6392;44.644;11.448;2024-02-26T04:22:02;3.00;;;2.50;;
12654;SDS011;6392;44.644;11.448;2024-02-26T04:24:29;3.67;;;2.43;;
12654;SDS011;6392;44.644;11.448;2024-02-26T04:26:56;3.17;;;2.57;;
12654;SDS011;6392;44.644;11.448;2024-02-26T04:29:23;4.13;;;2.47;;
12654;SDS011;6392;44.644;11.448;2024-02-26T04:31:50;4.27;;;2.67;;
12654;SDS011;6392;44.644;11.448;2024-02-26T04:34:17;2.47;;;2.10;;
12654;SDS011;6392;44.644;11.448;2024-02-26T04:36:44;4.00;;;2.43;;
12654;SDS011;6392;44.644;11.448;2024-02-26T04:39:14;3.43;;;2.43;;
12654;SDS011;6392;44.644;11.448;2024-02-26T04:41:41;4.20;;;3.10;;
12654;SDS011;6392;44.644;11.448;2024-02-26T04:44:08;3.53;;;2.80;;
12654;SDS011;6392;44.644;11.448;2024-02-26T04:46:35;3.87;;;3.00;;
12654;SDS011;6392;44.644;11.448;2024-02-26T04:49:02;3.77;;;2.77;;
12654;SDS011;6392;44.644;11.448;2024-02-26T04:51:29;2.80;;;2.60;;
12654;SDS011;6392;44.644;11.448;2024-02-26T04:53:56;4.67;;;2.57;;
12654;SDS011;6392;44.644;11.448;2024-02-26T04:56:25;4.37;;;2.77;;
12654;SDS011;6392;44.644;11.448;2024-02-26T04:58:52;4.50;;;2.80;;
12654;SDS011;6392;44.644;11.448;2024-02-26T05:01:19;3.83;;;2.70;;
12654;SDS011;6392;44.644;11.448;2024-02-26T05:03:46;6.13;;;2.50;;
12654;SDS011;6392;44.644;11.448;2024-02-26T05:06:14;4.67;;;2.70;;
12654;SDS011;6392;44.644;11.448;2024-02-26T05:08:41;5.37;;;3.00;;
12654;SDS011;6392;44.644;11.448;2024-02-26T05:11:09;6.97;;;3.20;;
12654;SDS011;6392;44.644;11.448;2024-02-26T05:13:38;2.77;;;2.43;;
12654;SDS011;6392;44.644;11.448;2024-02-26T05:16:05;3.87;;;2.80;;
12654;SDS011;6392;44.644;11.448;2024-02-26T05:18:32;5.93;;;3.10;;
12654;SDS011;6392;44.644;11.448;2024-02-26T05:20:59;6.47;;;3.40;;
12654;SDS011;6392;44.644;11.448;2024-02-26T05:23:26;4.53;;;3.50;;
12654;SDS011;6392;44.644;11.448;2024-02-26T05:25:53;3.97;;;3.03;;
12654;SDS011;6392;44.644;11.448;2024-02-26T05:28:20;4.17;;;3.20;;
12654;SDS011;6392;44.644;11.448;2024-02-26T05:30:49;3.80;;;3.03;;
12654;SDS011;6392;44.644;11.448;2024-02-26T05:33:16;9.40;;;3.33;;
12654;SDS011;6392;44.644;11.448;2024-02-26T05:35:43;7.97;;;3.53;;
12654;SDS011;6392;44.644;11.448;2024-02-26T05:38:10;4.30;;;3.13;;
12654;SDS011;6392;44.644;11.448;2024-02-26T05:40:37;4.40;;;3.77;;
12654;SDS011;6392;44.644;11.448;2024-02-26T05:43:04;4.37;;;3.40;;
12654;SDS011;6392;44.644;11.448;2024-02-26T05:45:31;4.23;;;3.00;;
12654;SDS011;6392;44.644;11.448;2024-02-26T05:48:00;3.73;;;3.10;;
12654;SDS011;6392;44.644;11.448;2024-02-26T05:50:28;3.63;;;3.07;;
12654;SDS011;6392;44.644;11.448;2024-02-26T05:52:55;6.13;;;3.77;;
12654;SDS011;6392;44.644;11.448;2024-02-26T05:55:22;6.80;;;3.70;;
12654;SDS011;6392;44.644;11.448;2024-02-26T05:57:49;4.23;;;3.37;;
12654;SDS011;6392;44.644;11.448;2024-02-26T06:00:16;4.53;;;3.50;;
12654;SDS011;6392;44.644;11.448;2024-02-26T06:02:43;3.60;;;3.23;;
12654;SDS011;6392;44.644;11.448;2024-02-26T06:05:12;6.43;;;3.70;;
12654;SDS011;6392;44.644;11.448;2024-02-26T06:07:39;6.43;;;3.10;;
12654;SDS011;6392;44.644;11.448;2024-02-26T06:10:06;4.67;;;3.17;;
12654;SDS011;6392;44.644;11.448;2024-02-26T06:12:34;6.10;;;3.30;;
12654;SDS011;6392;44.644;11.448;2024-02-26T06:15:02;6.07;;;3.63;;
12654;SDS011;6392;44.644;11.448;2024-02-26T06:17:29;4.53;;;3.77;;
12654;SDS011;6392;44.644;11.448;2024-02-26T06:19:56;5.70;;;3.80;;
12654;SDS011;6392;44.644;11.448;2024-02-26T06:22:25;5.43;;;3.60;;
12654;SDS011;6392;44.644;11.448;2024-02-26T06:24:52;4.00;;;3.17;;
12654;SDS011;6392;44.644;11.448;2024-02-26T06:27:19;5.90;;;3.70;;
12654;SDS011;6392;44.644;11.448;2024-02-26T06:29:47;4.27;;;3.80;;
12654;SDS011;6392;44.644;11.448;2024-02-26T06:32:14;4.37;;;3.50;;
12654;SDS011;6392;44.644;11.448;2024-02-26T06:34:41;6.83;;;3.93;;
12654;SDS011;6392;44.644;11.448;2024-02-26T06:37:08;5.20;;;4.00;;
12654;SDS011;6392;44.644;11.448;2024-02-26T06:39:36;6.20;;;3.97;;
12654;SDS011;6392;44.644;11.448;2024-02-26T06:42:04;4.73;;;3.90;;
12654;SDS011;6392;44.644;11.448;2024-02-26T06:44:31;5.37;;;4.03;;
12654;SDS011;6392;44.644;11.448;2024-02-26T06:46:59;5.50;;;3.97;;
12654;SDS011;6392;44.644;11.448;2024-02-26T06:49:27;5.73;;;4.20;;
12654;SDS011;6392;44.644;11.448;2024-02-26T06:51:54;6.03;;;4.37;;
12654;SDS011;6392;44.644;11.448;2024-02-26T06:54:21;9.43;;;4.80;;
12654;SDS011;6392;44.644;11.448;2024-02-26T06:56:49;7.43;;;4.67;;
12654;SDS011;6392;44.644;11.448;2024-02-26T06:59:16;5.00;;;4.40;;
12654;SDS011;6392;44.644;11.448;2024-02-26T07:01:45;5.77;;;4.07;;
12654;SDS011;6392;44.644;11.448;2024-02-26T07:04:12;5.47;;;4.30;;
12654;SDS011;6392;44.644;11.448;2024-02-26T07:06:39;8.60;;;4.17;;
12654;SDS011;6392;44.644;11.448;2024-02-26T07:09:06;6.57;;;4.80;;
12654;SDS011;6392;44.644;11.448;2024-02-26T07:11:33;5.67;;;4.40;;
12654;SDS011;6392;44.644;11.448;2024-02-26T07:14:02;5.87;;;4.60;;
12654;SDS011;6392;44.644;11.448;2024-02-26T07:16:29;6.77;;;4.70;;
12654;SDS011;6392;44.644;11.448;2024-02-26T07:18:56;6.30;;;4.43;;
12654;SDS011;6392;44.644;11.448;2024-02-26T07:21:23;5.67;;;4.50;;
12654;SDS011;6392;44.644;11.448;2024-02-26T07:23:50;6.43;;;4.37;;
12654;SDS011;6392;44.644;11.448;2024-02-26T07:26:17;7.17;;;4.97;;
12654;SDS011;6392;44.644;11.448;2024-02-26T07:28:44;5.50;;;4.63;;
12654;SDS011;6392;44.644;11.448;2024-02-26T07:31:13;7.93;;;4.60;;
12654;SDS011;6392;44.644;11.448;2024-02-26T07:33:40;6.70;;;4.70;;
12654;SDS011;6392;44.644;11.448;2024-02-26T07:36:07;6.97;;;4.50;;
12654;SDS011;6392;44.644;11.448;2024-02-26T07:38:34;8.63;;;4.77;;
12654;SDS011;6392;44.644;11.448;2024-02-26T07:41:01;7.57;;;4.70;;
12654;SDS011;6392;44.644;11.448;2024-02-26T07:43:29;5.47;;;4.53;;
12654;SDS011;6392;44.644;11.448;2024-02-26T07:45:56;5.97;;;4.53;;
12654;SDS011;6392;44.644;11.448;2024-02-26T07:48:25;6.17;;;4.37;;
12654;SDS011;6392;44.644;11.448;2024-02-26T07:50:52;9.27;;;4.70;;
12654;SDS011;6392;44.644;11.448;2024-02-26T07:53:19;8.20;;;5.03;;
12654;SDS011;6392;44.644;11.448;2024-02-26T07:55:46;7.57;;;5.20;;
12654;SDS011;6392;44.644;11.448;2024-02-26T07:58:13;5.23;;;4.17;;
12654;SDS011;6392;44.644;11.448;2024-02-26T08:00:40;7.83;;;4.70;;
12654;SDS011;6392;44.644;11.448;2024-02-26T08:03:07;5.80;;;4.50;;
12654;SDS011;6392;44.644;11.448;2024-02-26T08:05:36;7.90;;;4.63;;
12654;SDS011;6392;44.644;11.448;2024-02-26T08:08:05;6.30;;;4.30;;
12654;SDS011;6392;44.644;11.448;2024-02-26T08:10:33;6.60;;;4.33;;
12654;SDS011;6392;44.644;11.448;2024-02-26T08:13:00;5.37;;;3.90;;
12654;SDS011;6392;44.644;11.448;2024-02-26T08:15:31;6.53;;;4.70;;
12654;SDS011;6392;44.644;11.448;2024-02-26T08:17:59;5.40;;;3.67;;
12654;SDS011;6392;44.644;11.448;2024-02-26T08:20:27;10.43;;;4.57;;
12654;SDS011;6392;44.644;11.448;2024-02-26T08:22:56;6.20;;;4.40;;
12654;SDS011;6392;44.644;11.448;2024-02-26T08:25:23;6.77;;;4.67;;
12654;SDS011;6392;44.644;11.448;2024-02-26T08:27:51;4.80;;;3.90;;
12654;SDS011;6392;44.644;11.448;2024-02-26T08:30:18;5.33;;;3.63;;
12654;SDS011;6392;44.644;11.448;2024-02-26T08:32:45;5.80;;;4.33;;
12654;SDS011;6392;44.644;11.448;2024-02-26T08:35:13;5.77;;;4.10;;
12654;SDS011;6392;44.644;11.448;2024-02-26T08:37:43;5.20;;;4.10;;
12654;SDS011;6392;44.644;11.448;2024-02-26T08:40:12;7.90;;;5.10;;
12654;SDS011;6392;44.644;11.448;2024-02-26T08:42:39;7.13;;;4.20;;
12654;SDS011;6392;44.644;11.448;2024-02-26T08:45:07;4.80;;;3.53;;
12654;SDS011;6392;44.644;11.448;2024-02-26T08:47:34;4.60;;;3.77;;
12654;SDS011;6392;44.644;11.448;2024-02-26T08:50:02;4.20;;;3.30;;
12654;SDS011;6392;44.644;11.448;2024-02-26T08:52:30;9.57;;;6.43;;
12654;SDS011;6392;44.644;11.448;2024-02-26T08:54:57;11.63;;;5.80;;
12654;SDS011;6392;44.644;11.448;2024-02-26T08:57:25;14.33;;;7.20;;
12654;SDS011;6392;44.644;11.448;2024-02-26T08:59:53;9.03;;;5.23;;
12654;SDS011;6392;44.644;11.448;2024-02-26T09:02:20;4.70;;;3.53;;
12654;SDS011;6392;44.644;11.448;2024-02-26T09:04:47;6.23;;;3.50;;
12654;SDS011;6392;44.644;11.448;2024-02-26T09:07:16;4.50;;;3.33;;
12654;SDS011;6392;44.644;11.448;2024-02-26T09:09:43;7.77;;;3.90;;
12654;SDS011;6392;44.644;11.448;2024-02-26T09:12:10;5.17;;;4.00;;
12654;SDS011;6392;44.644;11.448;2024-02-26T09:14:38;5.77;;;3.53;;
12654;SDS011;6392;44.644;11.448;2024-02-26T09:17:05;3.97;;;3.50;;
12654;SDS011;6392;44.644;11.448;2024-02-26T09:19:32;4.53;;;3.40;;
12654;SDS011;6392;44.644;11.448;2024-02-26T09:21:59;4.37;;;2.83;;
12654;SDS011;6392;44.644;11.448;2024-02-26T09:24:26;5.13;;;3.57;;
12654;SDS011;6392;44.644;11.448;2024-02-26T09:26:53;6.67;;;3.87;;
12654;SDS011;6392;44.644;11.448;2024-02-26T09:29:21;5.80;;;3.10;;
12654;SDS011;6392;44.644;11.448;2024-02-26T09:31:49;4.40;;;3.37;;
12654;SDS011;6392;44.644;11.448;2024-02-26T09:34:16;6.57;;;2.97;;
12654;SDS011;6392;44.644;11.448;2024-02-26T09:36:43;4.67;;;2.40;;
12654;SDS011;6392;44.644;11.448;2024-02-26T09:39:10;4.13;;;2.20;;
12654;SDS011;6392;44.644;11.448;2024-02-26T09:41:39;3.47;;;2.53;;
12654;SDS011;6392;44.644;11.448;2024-02-26T09:44:06;4.33;;;2.80;;
12654;SDS011;6392;44.644;11.448;2024-02-26T09:46:35;2.70;;;2.13;;
12654;SDS011;6392;44.644;11.448;2024-02-26T09:49:04;3.00;;;1.93;;
12654;SDS011;6392;44.644;11.448;2024-02-26T09:51:32;3.70;;;1.80;;
12654;SDS011;6392;44.644;11.448;2024-02-26T09:54:00;2.33;;;1.87;;
12654;SDS011;6392;44.644;11.448;2024-02-26T09:56:27;3.47;;;2.50;;
12654;SDS011;6392;44.644;11.448;2024-02-26T09:58:55;4.37;;;2.13;;
12654;SDS011;6392;44.644;11.448;2024-02-26T10:01:23;2.63;;;2.00;;
12654;SDS011;6392;44.644;11.448;2024-02-26T10:03:51;4.03;;;1.97;;
12654;SDS011;6392;44.644;11.448;2024-02-26T10:06:22;3.27;;;2.07;;
12654;SDS011;6392;44.644;11.448;2024-02-26T10:08:52;2.77;;;2.20;;
12654;SDS011;6392;44.644;11.448;2024-02-26T10:11:20;2.23;;;1.80;;
12654;SDS011;6392;44.644;11.448;2024-02-26T10:13:48;2.90;;;1.90;;
12654;SDS011;6392;44.644;11.448;2024-02-26T10:16:15;2.23;;;1.60;;
12654;SDS011;6392;44.644;11.448;2024-02-26T10:18:46;1.97;;;1.30;;
12654;SDS011;6392;44.644;11.448;2024-02-26T10:21:15;1.90;;;1.50;;
12654;SDS011;6392;44.644;11.448;2024-02-26T10:23:45;1.77;;;1.57;;
12654;SDS011;6392;44.644;11.448;2024-02-26T10:26:14;2.43;;;1.53;;
12654;SDS011;6392;44.644;11.448;2024-02-26T10:28:41;2.10;;;1.70;;
12654;SDS011;6392;44.644;11.448;2024-02-26T10:31:10;1.63;;;1.50;;
12654;SDS011;6392;44.644;11.448;2024-02-26T10:33:37;2.53;;;1.87;;
12654;SDS011;6392;44.644;11.448;2024-02-26T10:36:05;1.87;;;1.70;;
12654;SDS011;6392;44.644;11.448;2024-02-26T10:38:33;4.27;;;2.70;;
12654;SDS011;6392;44.644;11.448;2024-02-26T10:41:03;5.70;;;2.83;;
12654;SDS011;6392;44.644;11.448;2024-02-26T10:43:30;5.77;;;2.80;;
12654;SDS011;6392;44.644;11.448;2024-02-26T10:45:57;9.13;;;3.13;;
12654;SDS011;6392;44.644;11.448;2024-02-26T10:48:24;7.27;;;3.33;;
12654;SDS011;6392;44.644;11.448;2024-02-26T10:50:51;4.53;;;2.90;;
12654;SDS011;6392;44.644;11.448;2024-02-26T10:53:20;3.70;;;2.87;;
12654;SDS011;6392;44.644;11.448;2024-02-26T10:55:48;4.70;;;3.33;;
12654;SDS011;6392;44.644;11.448;2024-02-26T10:58:20;5.40;;;2.97;;
12654;SDS011;6392;44.644;11.448;2024-02-26T11:00:48;3.87;;;2.70;;
12654;SDS011;6392;44.644;11.448;2024-02-26T11:03:16;3.37;;;2.50;;
12654;SDS011;6392;44.644;11.448;2024-02-26T11:05:45;4.57;;;2.00;;
12654;SDS011;6392;44.644;11.448;2024-02-26T11:08:14;3.00;;;2.10;;
12654;SDS011;6392;44.644;11.448;2024-02-26T11:10:42;3.70;;;2.60;;
12654;SDS011;6392;44.644;11.448;2024-02-26T11:13:10;2.87;;;2.50;;
12654;SDS011;6392;44.644;11.448;2024-02-26T11:15:41;4.03;;;2.70;;
12654;SDS011;6392;44.644;11.448;2024-02-26T11:18:10;6.73;;;3.43;;
12654;SDS011;6392;44.644;11.448;2024-02-26T11:20:39;7.83;;;4.40;;
12654;SDS011;6392;44.644;11.448;2024-02-26T11:23:07;5.07;;;3.40;;
12654;SDS011;6392;44.644;11.448;2024-02-26T11:25:34;4.73;;;3.53;;
12654;SDS011;6392;44.644;11.448;2024-02-26T11:28:05;5.00;;;3.00;;
12654;SDS011;6392;44.644;11.448;2024-02-26T11:30:44;7.03;;;3.50;;
12654;SDS011;6392;44.644;11.448;2024-02-26T11:33:12;4.77;;;3.60;;
12654;SDS011;6392;44.644;11.448;2024-02-26T11:35:41;6.33;;;3.37;;
12654;SDS011;6392;44.644;11.448;2024-02-26T11:38:08;5.93;;;3.97;;
12654;SDS011;6392;44.644;11.448;2024-02-26T11:40:46;5.40;;;4.00;;
12654;SDS011;6392;44.644;11.448;2024-02-26T11:43:13;4.07;;;3.50;;
12654;SDS011;6392;44.644;11.448;2024-02-26T11:45:51;7.10;;;4.73;;
12654;SDS011;6392;44.644;11.448;2024-02-26T11:48:20;6.93;;;4.20;;
12654;SDS011;6392;44.644;11.448;2024-02-26T11:50:48;4.87;;;4.37;;
12654;SDS011;6392;44.644;11.448;2024-02-26T11:53:19;10.03;;;4.47;;
12654;SDS011;6392;44.644;11.448;2024-02-26T11:55:48;7.53;;;4.80;;
12654;SDS011;6392;44.644;11.448;2024-02-26T11:58:35;5.50;;;4.33;;
12654;SDS011;6392;44.644;11.448;2024-02-26T12:01:06;9.50;;;4.73;;
12654;SDS011;6392;44.644;11.448;2024-02-26T12:04:02;5.13;;;4.63;;
12654;SDS011;6392;44.644;11.448;2024-02-26T12:06:39;9.93;;;5.10;;
12654;SDS011;6392;44.644;11.448;2024-02-26T12:09:10;5.73;;;4.83;;
12654;SDS011;6392;44.644;11.448;2024-02-26T12:11:38;5.17;;;4.60;;
12654;SDS011;6392;44.644;11.448;2024-02-26T12:14:07;7.53;;;4.90;;
12654;SDS011;6392;44.644;11.448;2024-02-26T12:16:36;8.07;;;5.47;;
12654;SDS011;6392;44.644;11.448;2024-02-26T12:19:04;6.77;;;4.00;;
12654;SDS011;6392;44.644;11.448;2024-02-26T12:21:34;5.60;;;4.67;;
12654;SDS011;6392;44.644;11.448;2024-02-26T12:24:09;5.93;;;4.50;;
12654;SDS011;6392;44.644;11.448;2024-02-26T12:26:38;6.67;;;4.47;;
12654;SDS011;6392;44.644;11.448;2024-02-26T12:29:05;7.27;;;4.53;;
12654;SDS011;6392;44.644;11.448;2024-02-26T12:31:33;5.93;;;4.43;;
12654;SDS011;6392;44.644;11.448;2024-02-26T12:34:03;5.53;;;4.50;;
12654;SDS011;6392;44.644;11.448;2024-02-26T12:36:31;5.67;;;4.10;;
12654;SDS011;6392;44.644;11.448;2024-02-26T12:38:59;4.80;;;4.30;;
12654;SDS011;6392;44.644;11.448;2024-02-26T12:41:27;6.77;;;4.43;;
12654;SDS011;6392;44.644;11.448;2024-02-26T12:43:55;5.83;;;4.23;;
12654;SDS011;6392;44.644;11.448;2024-02-26T12:46:23;8.67;;;4.80;;
12654;SDS011;6392;44.644;11.448;2024-02-26T12:48:50;6.53;;;4.63;;
12654;SDS011;6392;44.644;11.448;2024-02-26T12:51:20;6.73;;;4.97;;
12654;SDS011;6392;44.644;11.448;2024-02-26T12:53:48;7.30;;;4.40;;
12654;SDS011;6392;44.644;11.448;2024-02-26T12:56:17;4.97;;;4.33;;
12654;SDS011;6392;44.644;11.448;2024-02-26T12:58:45;5.80;;;4.83;;
12654;SDS011;6392;44.644;11.448;2024-02-26T13:01:14;5.87;;;4.47;;
12654;SDS011;6392;44.644;11.448;2024-02-26T13:03:43;4.97;;;3.77;;
12654;SDS011;6392;44.644;11.448;2024-02-26T13:06:10;7.97;;;4.20;;
12654;SDS011;6392;44.644;11.448;2024-02-26T13:08:39;8.17;;;4.43;;
12654;SDS011;6392;44.644;11.448;2024-02-26T13:11:06;7.80;;;4.27;;
12654;SDS011;6392;44.644;11.448;2024-02-26T13:13:34;6.53;;;3.80;;
12654;SDS011;6392;44.644;11.448;2024-02-26T13:16:02;4.37;;;3.80;;
12654;SDS011;6392;44.644;11.448;2024-02-26T13:18:31;4.60;;;3.67;;
12654;SDS011;6392;44.644;11.448;2024-02-26T13:21:08;6.23;;;4.03;;
12654;SDS011;6392;44.644;11.448;2024-02-26T13:23:37;5.53;;;3.53;;
12654;SDS011;6392;44.644;11.448;2024-02-26T13:26:05;7.77;;;3.50;;
12654;SDS011;6392;44.644;11.448;2024-02-26T13:28:33;4.90;;;3.50;;
12654;SDS011;6392;44.644;11.448;2024-02-26T13:31:01;3.33;;;2.50;;
12654;SDS011;6392;44.644;11.448;2024-02-26T13:33:30;4.07;;;2.30;;
12654;SDS011;6392;44.644;11.448;2024-02-26T13:35:57;3.97;;;2.23;;
12654;SDS011;6392;44.644;11.448;2024-02-26T13:38:25;3.97;;;2.50;;
12654;SDS011;6392;44.644;11.448;2024-02-26T13:40:53;3.33;;;1.70;;
12654;SDS011;6392;44.644;11.448;2024-02-26T13:43:22;4.10;;;1.20;;
12654;SDS011;6392;44.644;11.448;2024-02-26T13:45:50;1.20;;;1.07;;
12654;SDS011;6392;44.644;11.448;2024-02-26T13:48:17;2.00;;;1.10;;
12654;SDS011;6392;44.644;11.448;2024-02-26T13:50:44;1.80;;;0.93;;
12654;SDS011;6392;44.644;11.448;2024-02-26T13:53:11;1.70;;;0.93;;
12654;SDS011;6392;44.644;11.448;2024-02-26T13:55:39;1.27;;;0.83;;
12654;SDS011;6392;44.644;11.448;2024-02-26T13:58:08;1.97;;;1.00;;
12654;SDS011;6392;44.644;11.448;2024-02-26T14:00:39;2.07;;;1.13;;
12654;SDS011;6392;44.644;11.448;2024-02-26T14:03:06;1.53;;;0.80;;
12654;SDS011;6392;44.644;11.448;2024-02-26T14:05:34;2.03;;;1.10;;
12654;SDS011;6392;44.644;11.448;2024-02-26T14:08:01;1.30;;;1.20;;
12654;SDS011;6392;44.644;11.448;2024-02-26T14:10:28;1.63;;;1.10;;
12654;SDS011;6392;44.644;11.448;2024-02-26T14:12:57;2.63;;;0.77;;
12654;SDS011;6392;44.644;11.448;2024-02-26T14:15:25;0.77;;;0.77;;
12654;SDS011;6392;44.644;11.448;2024-02-26T14:17:53;1.00;;;0.60;;
12654;SDS011;6392;44.644;11.448;2024-02-26T14:20:21;1.17;;;0.70;;
12654;SDS011;6392;44.644;11.448;2024-02-26T14:22:49;0.83;;;0.80;;
12654;SDS011;6392;44.644;11.448;2024-02-26T14:25:17;1.73;;;0.93;;
12654;SDS011;6392;44.644;11.448;2024-02-26T14:27:44;0.70;;;0.60;;
12654;SDS011;6392;44.644;11.448;2024-02-26T14:30:12;2.23;;;0.97;;
12654;SDS011;6392;44.644;11.448;2024-02-26T14:32:39;0.67;;;0.63;;
12654;SDS011;6392;44.644;11.448;2024-02-26T14:35:08;1.33;;;0.70;;
12654;SDS011;6392;44.644;11.448;2024-02-26T14:37:35;0.80;;;0.80;;
12654;SDS011;6392;44.644;11.448;2024-02-26T14:40:02;1.97;;;1.00;;
12654;SDS011;6392;44.644;11.448;2024-02-26T14:42:30;1.43;;;0.93;;
12654;SDS011;6392;44.644;11.448;2024-02-26T14:44:57;2.60;;;1.20;;
12654;SDS011;6392;44.644;11.448;2024-02-26T14:47:24;3.13;;;1.20;;
12654;SDS011;6392;44.644;11.448;2024-02-26T14:49:52;3.10;;;1.00;;
12654;SDS011;6392;44.644;11.448;2024-02-26T14:52:20;1.77;;;1.20;;